Time;durP1;ratioP1;P1;durP2;ratioP2;P2;SDS_P1;SDS_P2;PMS_P1;PMS_P2;Temp;Humidity;BMP_temperature;BMP_pressure;BME280_temperature;BME280_humidity;BME280_pressure;Samples;Min_cycle;Max_cycle;Signal;HPM_P1;HPM_P2
2022/04/27 00:01:48;;;;;;;5.05;3.55;;;5.70;99.90;;;;;;4915838;29;20035;-51
2022/04/27 00:04:15;;;;;;;6.82;4.00;;;5.70;99.90;;;;;;4914181;29;20048;-50
2022/04/27 00:06:42;;;;;;;7.60;4.50;;;5.70;99.90;;;;;;4908006;29;20095;-50
2022/04/27 00:09:10;;;;;;;7.32;4.72;;;5.70;99.90;;;;;;4916220;29;20473;-50
2022/04/27 00:11:37;;;;;;;7.75;5.13;;;5.70;99.90;;;;;;4915455;29;20056;-51
2022/04/27 00:14:04;;;;;;;7.07;4.70;;;5.70;99.90;;;;;;4913889;29;20457;-51
2022/04/27 00:16:31;;;;;;;9.45;5.70;;;5.80;99.90;;;;;;4908596;29;20140;-50
2022/04/27 00:18:58;;;;;;;7.88;5.55;;;5.80;99.90;;;;;;4915729;29;20086;-52
2022/04/27 00:21:25;;;;;;;7.43;5.88;;;5.80;99.90;;;;;;4914207;29;20087;-50
2022/04/27 00:23:52;;;;;;;9.77;5.65;;;5.80;99.90;;;;;;4908765;29;20056;-53
2022/04/27 00:26:19;;;;;;;10.15;6.05;;;5.80;99.90;;;;;;4914586;29;20051;-49
2022/04/27 00:28:46;;;;;;;8.18;5.15;;;5.80;99.90;;;;;;4897475;29;20075;-50
2022/04/27 00:31:13;;;;;;;13.73;6.73;;;5.80;99.90;;;;;;4906856;29;20053;-53
2022/04/27 00:33:39;;;;;;;9.23;5.32;;;5.90;99.90;;;;;;4898740;29;20280;-50
2022/04/27 00:36:06;;;;;;;9.90;5.60;;;5.80;99.90;;;;;;4898517;29;20059;-51
2022/04/27 00:38:33;;;;;;;8.07;5.47;;;5.80;99.90;;;;;;4914141;29;20048;-52
2022/04/27 00:41:00;;;;;;;8.40;5.38;;;5.80;99.90;;;;;;4907384;29;20557;-50
2022/04/27 00:43:41;;;;;;;10.18;5.93;;;5.80;99.90;;;;;;4915362;29;20063;-51
2022/04/27 00:46:11;;;;;;;9.55;5.57;;;5.80;99.90;;;;;;4914100;29;20119;-53
2022/04/27 00:48:39;;;;;;;8.32;5.47;;;5.80;99.90;;;;;;4907712;29;20073;-51
2022/04/27 00:51:07;;;;;;;9.55;5.88;;;5.80;99.90;;;;;;4914987;29;20036;-50
2022/04/27 00:53:35;;;;;;;8.32;5.78;;;5.80;99.90;;;;;;4896926;29;20052;-51
2022/04/27 00:56:02;;;;;;;;;;;5.80;99.90;;;;;;4890889;29;20048;-49
2022/04/27 00:58:29;;;;;;;10.60;6.28;;;5.70;99.90;;;;;;4915357;29;19927;-48
2022/04/27 01:01:16;;;;;;;9.48;5.95;;;5.80;99.90;;;;;;4898045;29;20084;-50
2022/04/27 01:03:43;;;;;;;11.50;6.50;;;5.80;99.90;;;;;;4893691;29;20044;-52
2022/04/27 01:06:09;;;;;;;9.07;6.30;;;5.80;99.90;;;;;;4888274;29;20044;-50
2022/04/27 01:08:36;;;;;;;12.25;7.43;;;5.80;99.90;;;;;;4898404;29;20051;-49
2022/04/27 01:11:05;;;;;;;10.30;6.63;;;5.80;99.90;;;;;;4896230;29;20040;-50
2022/04/27 01:13:38;;;;;;;13.13;7.28;;;5.80;99.90;;;;;;4890494;29;20064;-52
2022/04/27 01:16:05;;;;;;;13.68;7.13;;;5.90;99.90;;;;;;4898552;29;20054;-49
2022/04/27 01:18:33;;;;;;;10.57;6.75;;;5.90;99.90;;;;;;4898241;29;20524;-49
2022/04/27 01:21:02;;;;;;;11.90;7.32;;;5.90;99.90;;;;;;4905649;29;20045;-50
2022/04/27 01:23:31;;;;;;;13.13;8.05;;;5.90;99.90;;;;;;4860759;29;20049;-50
2022/04/27 01:26:05;;;;;;;13.20;8.38;;;5.90;99.90;;;;;;4860972;29;20521;-50
2022/04/27 01:28:33;;;;;;;12.05;7.72;;;5.80;99.90;;;;;;4907166;29;20045;-51
2022/04/27 01:31:02;;;;;;;12.30;7.82;;;5.80;99.90;;;;;;4911228;29;20413;-51
2022/04/27 01:33:30;;;;;;;11.88;7.15;;;5.80;99.90;;;;;;4897829;29;20056;-51
2022/04/27 01:36:00;;;;;;;12.02;7.47;;;5.90;99.90;;;;;;4896868;29;20047;-49
2022/04/27 01:38:32;;;;;;;12.95;7.82;;;5.90;99.90;;;;;;4895064;29;20410;-50
2022/04/27 01:40:59;;;;;;;13.90;8.25;;;5.90;99.90;;;;;;4896936;29;20104;-51
2022/04/27 01:43:26;;;;;;;16.20;8.30;;;5.90;99.90;;;;;;4882797;29;20104;-50
2022/04/27 01:45:53;;;;;;;18.42;8.05;;;5.90;99.90;;;;;;4909219;29;20040;-50
2022/04/27 01:48:20;;;;;;;16.55;8.25;;;5.90;99.90;;;;;;4893849;29;20547;-51
2022/04/27 01:50:46;;;;;;;11.90;7.82;;;5.90;99.90;;;;;;4901515;29;20067;-50
2022/04/27 01:55:59;;;;;;;11.68;7.25;;;5.90;99.90;;;;;;4892839;29;20045;-50
2022/04/27 01:58:32;;;;;;;14.02;6.78;;;5.90;99.90;;;;;;4882804;29;20067;-50
2022/04/27 02:01:00;;;;;;;13.57;8.48;;;5.90;99.90;;;;;;4882486;29;20052;-50
2022/04/27 02:03:28;;;;;;;13.25;7.85;;;5.90;99.90;;;;;;4892096;29;20040;-51
2022/04/27 02:05:57;;;;;;;12.88;7.88;;;5.80;99.90;;;;;;4893695;29;20501;-51
2022/04/27 02:08:24;;;;;;;12.63;7.88;;;5.80;99.90;;;;;;4901490;29;20063;-51
2022/04/27 02:10:51;;;;;;;;;;;5.80;99.90;;;;;;4901260;29;20555;-51
2022/04/27 02:13:19;;;;;;;13.00;7.85;;;5.80;99.90;;;;;;4909768;29;20034;-49
2022/04/27 02:15:46;;;;;;;14.55;7.85;;;5.80;99.90;;;;;;4901299;29;20521;-49
2022/04/27 02:18:28;;;;;;;13.63;8.02;;;5.80;99.90;;;;;;4901194;29;20103;-49
2022/04/27 02:20:56;;;;;;;15.15;8.23;;;5.80;99.90;;;;;;4916344;29;20054;-50
2022/04/27 02:23:23;;;;;;;13.05;8.35;;;5.70;99.90;;;;;;4910058;29;20123;-50
2022/04/27 02:25:51;;;;;;;14.05;9.07;;;5.80;99.90;;;;;;4901381;29;20405;-50
2022/04/27 02:28:20;;;;;;;16.58;8.93;;;5.80;99.90;;;;;;4899046;29;20044;-50
2022/04/27 02:30:47;;;;;;;15.95;9.63;;;5.80;99.90;;;;;;4892986;29;20127;-50
2022/04/27 02:33:14;;;;;;;18.15;9.77;;;5.90;99.90;;;;;;4917738;29;20050;-50
2022/04/27 02:35:42;;;;;;;17.00;10.38;;;5.90;99.90;;;;;;4899818;29;20078;-49
2022/04/27 02:38:08;;;;;;;13.38;8.45;;;5.90;99.90;;;;;;4910230;29;20048;-49
2022/04/27 02:40:36;;;;;;;16.35;9.35;;;5.90;99.90;;;;;;4900559;29;20071;-52
2022/04/27 02:43:04;;;;;;;16.67;9.55;;;5.90;99.90;;;;;;4900461;29;20052;-55
2022/04/27 02:45:31;;;;;;;16.45;10.40;;;5.90;99.90;;;;;;4912408;29;20096;-50
2022/04/27 02:47:58;;;;;;;14.90;8.90;;;5.90;99.90;;;;;;4897080;29;20055;-49
2022/04/27 02:53:10;;;;;;;13.73;8.50;;;5.90;99.90;;;;;;4898620;29;20048;-50
2022/04/27 02:55:37;;;;;;;15.95;8.82;;;5.90;99.90;;;;;;4909747;29;20044;-50
2022/04/27 02:58:04;;;;;;;17.33;10.02;;;5.90;99.90;;;;;;4900793;29;20497;-49
2022/04/27 03:00:31;;;;;;;15.95;8.75;;;5.90;99.90;;;;;;4900188;29;20142;-50
2022/04/27 03:03:04;;;;;;;15.88;9.38;;;5.90;99.90;;;;;;4905338;23;20195;-51
2022/04/27 03:05:31;;;;;;;;;;;6.00;99.90;;;;;;4909779;29;20066;-51
2022/04/27 03:07:58;;;;;;;15.90;9.40;;;6.00;99.90;;;;;;4918293;29;19931;-52
2022/04/27 03:10:27;;;;;;;15.57;9.05;;;6.00;99.90;;;;;;4903427;29;20043;-52
2022/04/27 03:12:53;;;;;;;15.13;9.43;;;6.00;99.90;;;;;;4915269;29;20055;-52
2022/04/27 03:15:20;;;;;;;17.15;9.30;;;5.90;99.90;;;;;;4916296;29;20048;-53
2022/04/27 03:18:16;;;;;;;15.23;9.38;;;5.90;99.90;;;;;;4900159;29;20492;-52
2022/04/27 03:20:34;;;;;;;16.17;9.80;;;5.90;99.90;;;;;;4899800;29;20055;-54
2022/04/27 03:23:01;;;;;;;17.65;10.48;;;6.00;99.90;;;;;;4899119;29;20044;-52
2022/04/27 03:25:28;;;;;;;20.52;10.45;;;6.00;99.90;;;;;;4915868;29;20044;-51
2022/04/27 03:27:56;;;;;;;17.23;10.10;;;6.00;99.90;;;;;;4917052;29;20044;-52
2022/04/27 03:30:22;;;;;;;17.15;10.15;;;5.90;99.90;;;;;;4898112;29;20048;-52
2022/04/27 03:32:51;;;;;;;15.85;9.98;;;5.90;99.90;;;;;;4899534;29;20044;-52
2022/04/27 03:35:17;;;;;;;16.33;9.48;;;5.90;99.90;;;;;;4899928;29;20048;-51
2022/04/27 03:37:44;;;;;;;19.80;11.20;;;5.90;99.90;;;;;;4899008;29;20394;-52
2022/04/27 03:40:11;;;;;;;20.90;10.77;;;6.00;99.90;;;;;;4897361;29;20051;-53
2022/04/27 03:42:38;;;;;;;17.88;10.60;;;6.00;99.90;;;;;;4899709;29;20044;-51
2022/04/27 03:45:05;;;;;;;18.60;10.80;;;6.00;99.90;;;;;;4916742;29;20500;-55
2022/04/27 03:47:39;;;;;;;19.83;11.23;;;6.00;99.90;;;;;;4899471;29;20473;-52
2022/04/27 03:50:06;;;;;;;;;;;6.00;99.90;;;;;;4899623;29;20568;-53
2022/04/27 03:52:43;;;;;;;18.02;9.80;;;6.00;99.90;;;;;;4899635;29;19978;-52
2022/04/27 03:55:11;;;;;;;18.05;10.27;;;6.00;99.90;;;;;;4898628;29;20055;-52
2022/04/27 03:57:41;;;;;;;17.58;10.43;;;6.10;99.90;;;;;;4899241;29;20048;-51
2022/04/27 04:00:10;;;;;;;18.75;10.68;;;6.00;99.90;;;;;;4899011;29;20076;-52
2022/04/27 04:02:44;;;;;;;22.42;10.68;;;6.10;99.90;;;;;;4899308;29;20052;-52
2022/04/27 04:05:11;;;;;;;17.55;10.82;;;6.10;99.90;;;;;;4909091;29;20052;-54
2022/04/27 04:07:39;;;;;;;19.08;10.00;;;6.10;99.90;;;;;;4898323;29;20047;-52
2022/04/27 04:10:07;;;;;;;19.13;11.02;;;6.10;99.90;;;;;;4898066;29;20048;-52
2022/04/27 04:12:36;;;;;;;21.70;11.60;;;6.10;99.90;;;;;;4898409;29;20048;-52
2022/04/27 04:15:06;;;;;;;21.55;11.18;;;6.00;99.90;;;;;;4908854;29;20466;-52
2022/04/27 04:17:46;;;;;;;15.67;8.23;;;6.00;99.90;;;;;;4898328;29;20075;-52
2022/04/27 04:20:24;;;;;;;22.67;11.68;;;6.00;99.90;;;;;;4897819;29;20722;-53
2022/04/27 04:23:02;;;;;;;;;;;6.00;99.90;;;;;;4913810;29;20040;-52
2022/04/27 04:28:30;;;;;;;20.02;11.38;;;6.10;99.90;;;;;;4898127;29;20044;-52
2022/04/27 04:31:02;;;;;;;19.70;11.13;;;6.10;99.90;;;;;;4897720;29;20055;-52
2022/04/27 04:33:29;;;;;;;22.00;11.85;;;6.10;99.90;;;;;;4914132;29;20054;-53
2022/04/27 04:35:58;;;;;;;19.85;11.50;;;6.10;99.90;;;;;;4897681;29;20100;-55
2022/04/27 04:38:26;;;;;;;19.20;11.25;;;6.10;99.90;;;;;;4897967;29;20052;-53
2022/04/27 04:40:57;;;;;;;19.65;11.23;;;6.10;99.90;;;;;;4897399;29;20047;-53
2022/04/27 04:43:34;;;;;;;15.93;8.82;;;6.20;99.90;;;;;;4896658;29;20047;-52
2022/04/27 04:46:01;;;;;;;20.50;11.48;;;6.30;99.90;;;;;;4897491;29;20449;-54
2022/04/27 04:48:51;;;;;;;18.25;11.02;;;6.30;99.90;;;;;;4909434;29;20116;-52
2022/04/27 04:51:36;;;;;;;21.10;11.25;;;6.40;99.90;;;;;;4906688;29;20413;-51
2022/04/27 04:54:22;;;;;;;19.73;11.80;;;6.30;99.90;;;;;;4914921;29;20092;-52
2022/04/27 04:57:09;;;;;;;23.42;13.20;;;6.40;99.90;;;;;;4897107;29;20080;-52
2022/04/27 04:59:55;;;;;;;23.48;11.95;;;6.40;99.90;;;;;;4910098;29;20522;-53
2022/04/27 05:02:34;;;;;;;21.42;11.88;;;6.40;99.90;;;;;;4894572;29;20501;-52
2022/04/27 05:05:14;;;;;;;21.98;12.75;;;6.40;99.90;;;;;;4897334;29;20056;-52
2022/04/27 05:08:00;;;;;;;23.30;12.75;;;6.50;99.90;;;;;;4912775;29;20077;-54
2022/04/27 05:10:58;;;;;;;20.80;11.38;;;6.40;99.90;;;;;;4895342;29;20048;-53
2022/04/27 05:13:37;;;;;;;20.70;12.32;;;6.50;99.90;;;;;;4897789;29;20044;-52
2022/04/27 05:16:18;;;;;;;21.23;11.75;;;6.50;99.90;;;;;;4897407;29;20127;-52
2022/04/27 05:19:07;;;;;;;21.27;11.52;;;6.50;99.90;;;;;;4911460;29;20063;-53
2022/04/27 05:22:06;;;;;;;18.80;11.18;;;6.60;99.90;;;;;;4879334;29;20139;-52
2022/04/27 05:24:48;;;;;;;20.67;11.82;;;6.60;99.90;;;;;;4894583;29;20048;-53
2022/04/27 05:27:25;;;;;;;21.13;12.25;;;6.60;99.90;;;;;;4897396;29;20052;-52
2022/04/27 05:33:13;;;;;;;22.42;12.35;;;6.50;99.90;;;;;;4903720;29;20139;-56
2022/04/27 05:36:09;;;;;;;18.75;11.38;;;6.60;99.90;;;;;;4897805;29;20060;-53
2022/04/27 05:39:01;;;;;;;22.33;12.23;;;6.50;99.90;;;;;;4915274;29;20135;-55
2022/04/27 05:41:55;;;;;;;22.70;12.90;;;6.60;99.90;;;;;;4908453;29;20091;-54
2022/04/27 05:44:41;;;;;;;20.35;12.40;;;6.70;99.90;;;;;;4908791;29;20462;-53
2022/04/27 05:47:27;;;;;;;19.92;11.95;;;6.70;99.90;;;;;;4914911;29;20096;-53
2022/04/27 05:50:11;;;;;;;19.85;11.82;;;6.70;99.90;;;;;;4896483;29;20083;-55
2022/04/27 05:52:58;;;;;;;22.73;12.10;;;6.80;99.90;;;;;;4897934;29;20051;-55
2022/04/27 05:56:00;;;;;;;23.30;12.55;;;6.80;99.90;;;;;;4827022;29;20064;-56
2022/04/27 05:58:45;;;;;;;21.23;12.15;;;6.90;99.90;;;;;;4905690;29;20397;-53
2022/04/27 06:01:21;;;;;;;20.17;11.70;;;6.90;99.90;;;;;;4913721;29;20044;-52
2022/04/27 06:03:56;;;;;;;19.30;11.75;;;6.90;99.90;;;;;;4913537;29;20044;-52
2022/04/27 06:06:24;;;;;;;20.90;11.65;;;6.90;99.90;;;;;;4897693;29;20131;-53
2022/04/27 06:08:52;;;;;;;20.88;11.57;;;6.90;99.90;;;;;;4897044;29;20103;-53
2022/04/27 06:11:27;;;;;;;20.48;11.90;;;6.90;99.90;;;;;;4897053;29;20037;-52
2022/04/27 06:14:13;;;;;;;19.42;11.50;;;6.90;99.90;;;;;;4896006;29;20169;-53
2022/04/27 06:16:50;;;;;;;21.63;11.35;;;6.90;99.90;;;;;;4879151;29;20053;-52
2022/04/27 06:19:17;;;;;;;19.38;12.32;;;6.90;99.90;;;;;;4890461;29;20083;-52
2022/04/27 06:21:48;;;;;;;19.08;11.10;;;7.00;99.90;;;;;;4897319;29;20075;-53
2022/04/27 06:24:17;;;;;;;17.02;10.50;;;7.00;99.90;;;;;;4897099;29;20036;-54
2022/04/27 06:26:44;;;;;;;19.15;11.50;;;7.10;99.90;;;;;;4894471;29;20059;-53
2022/04/27 06:29:11;;;;;;;18.90;10.45;;;7.20;99.90;;;;;;4900668;29;20452;-53
2022/04/27 06:31:44;;;;;;;20.95;11.05;;;7.30;99.90;;;;;;4916594;29;20483;-52
2022/04/27 06:34:12;;;;;;;18.98;10.57;;;7.40;99.90;;;;;;4914092;29;20087;-54
2022/04/27 06:36:39;;;;;;;18.95;10.45;;;7.40;99.90;;;;;;4900638;29;20071;-53
2022/04/27 06:39:14;;;;;;;17.83;10.77;;;7.50;99.90;;;;;;4900524;29;20420;-52
2022/04/27 06:41:42;;;;;;;17.25;9.77;;;7.60;99.90;;;;;;4900012;29;20402;-53
2022/04/27 06:44:28;;;;;;;14.48;9.05;;;7.70;99.90;;;;;;4911205;29;20523;-54
2022/04/27 06:47:14;;;;;;;14.95;9.05;;;7.90;99.90;;;;;;4918080;29;20116;-55
2022/04/27 06:49:59;;;;;;;14.10;9.55;;;8.00;99.90;;;;;;4916011;29;20055;-53
2022/04/27 06:52:46;;;;;;;17.02;10.35;;;8.10;99.90;;;;;;4917337;29;20055;-52
2022/04/27 06:55:31;;;;;;;19.45;9.63;;;8.20;99.90;;;;;;4915911;29;20107;-53
2022/04/27 06:58:28;;;;;;;15.55;9.93;;;8.30;99.90;;;;;;4899291;29;20077;-53
2022/04/27 07:01:05;;;;;;;16.17;8.73;;;8.30;99.90;;;;;;4899955;29;20147;-53
2022/04/27 07:03:38;;;;;;;15.68;9.85;;;8.20;99.90;;;;;;4899981;29;20044;-56
2022/04/27 07:06:05;;;;;;;13.30;8.50;;;8.30;99.90;;;;;;4915421;29;20051;-54
2022/04/27 07:08:34;;;;;;;17.77;9.30;;;8.30;99.90;;;;;;4899717;29;20044;-52
2022/04/27 07:11:01;;;;;;;15.88;9.15;;;8.30;99.90;;;;;;4916029;29;20058;-56
2022/04/27 07:13:29;;;;;;;13.40;9.38;;;8.30;99.90;;;;;;4916722;29;20048;-52
2022/04/27 07:16:01;;;;;;;15.77;9.25;;;8.30;99.90;;;;;;4916030;29;20052;-54
2022/04/27 07:18:29;;;;;;;15.75;9.57;;;8.30;99.90;;;;;;4909589;29;20051;-54
2022/04/27 07:20:56;;;;;;;13.98;9.35;;;8.30;99.90;;;;;;4916605;29;20048;-52
2022/04/27 07:23:23;;;;;;;15.98;9.55;;;8.20;99.90;;;;;;4916812;29;20044;-52
2022/04/27 07:25:50;;;;;;;17.08;9.30;;;8.10;99.90;;;;;;4914968;29;20071;-54
2022/04/27 07:28:17;;;;;;;14.05;9.32;;;8.10;99.90;;;;;;4916676;29;20044;-52
2022/04/27 07:30:44;;;;;;;16.25;9.38;;;8.10;99.90;;;;;;4915638;29;20096;-54
2022/04/27 07:33:11;;;;;;;13.57;9.30;;;8.10;99.90;;;;;;4913279;29;20052;-52
2022/04/27 07:35:38;;;;;;;12.30;8.60;;;8.20;99.90;;;;;;4916611;29;20052;-52
2022/04/27 07:38:05;;;;;;;13.80;9.60;;;8.30;99.90;;;;;;4916047;29;20073;-52
2022/04/27 07:40:31;;;;;;;16.17;9.85;;;8.30;99.90;;;;;;4916023;29;20052;-54
2022/04/27 07:42:59;;;;;;;14.45;9.57;;;8.40;99.90;;;;;;4914452;29;20052;-52
2022/04/27 07:45:26;;;;;;;;;;;8.50;99.90;;;;;;4917032;29;20497;-52
2022/04/27 07:47:53;;;;;;;16.50;9.45;;;8.70;99.90;;;;;;4916698;29;19935;-53
2022/04/27 07:50:20;;;;;;;14.32;9.23;;;8.80;99.90;;;;;;4914509;29;20040;-52
2022/04/27 07:52:46;;;;;;;13.30;8.00;;;8.80;99.90;;;;;;4911774;29;20070;-53
2022/04/27 07:55:13;;;;;;;11.27;7.30;;;9.00;99.90;;;;;;4916526;29;20067;-52
2022/04/27 07:57:40;;;;;;;10.82;7.20;;;9.10;99.90;;;;;;4916469;29;20498;-52
2022/04/27 08:00:12;;;;;;;12.90;7.65;;;9.20;99.90;;;;;;4915058;29;20036;-52
2022/04/27 08:02:39;;;;;;;10.43;6.50;;;9.40;99.90;;;;;;4916196;29;20123;-54
2022/04/27 08:05:07;;;;;;;12.50;7.72;;;9.60;99.90;;;;;;4916078;29;20447;-54
2022/04/27 08:07:38;;;;;;;8.40;6.22;;;9.70;99.90;;;;;;4915902;29;20063;-53
2022/04/27 08:10:07;;;;;;;9.30;7.05;;;9.70;99.90;;;;;;4913249;29;20572;-52
2022/04/27 08:12:34;;;;;;;10.10;6.25;;;9.60;99.90;;;;;;4913647;29;20051;-52
2022/04/27 08:15:00;;;;;;;14.43;6.65;;;9.60;99.90;;;;;;4915865;29;20052;-54
2022/04/27 08:17:27;;;;;;;13.38;7.05;;;9.50;99.90;;;;;;4906321;29;20103;-58
2022/04/27 08:21:13;;;;;;;10.65;6.65;;;9.40;99.90;;;;;;4911189;29;20044;-57
2022/04/27 08:22:40;;;;;;;9.57;6.60;;;9.30;99.90;;;;;;4906157;29;20493;-58
2022/04/27 08:25:08;;;;;;;9.30;6.70;;;9.30;99.90;;;;;;4915419;29;20682;-56
2022/04/27 08:27:34;;;;;;;9.10;6.35;;;9.30;99.90;;;;;;4910423;29;20083;-56
2022/04/27 08:30:02;;;;;;;12.32;7.20;;;9.30;99.90;;;;;;4915341;29;20049;-56
2022/04/27 08:32:29;;;;;;;9.27;5.53;;;9.30;99.90;;;;;;4915769;29;20082;-56
2022/04/27 08:34:55;;;;;;;8.60;5.07;;;9.50;99.90;;;;;;4912761;29;20051;-55
2022/04/27 08:37:22;;;;;;;7.50;4.40;;;9.60;99.90;;;;;;4915200;29;20048;-56
2022/04/27 08:39:49;;;;;;;9.77;5.63;;;9.80;99.90;;;;;;4915635;29;20794;-55
2022/04/27 08:42:16;;;;;;;7.13;4.80;;;10.10;99.90;;;;;;4913463;29;20292;-55
2022/04/27 08:44:42;;;;;;;8.00;5.55;;;10.30;99.90;;;;;;4909345;29;20123;-56
2022/04/27 08:47:09;;;;;;;7.25;5.05;;;10.50;99.90;;;;;;4915569;29;20055;-57
2022/04/27 08:49:36;;;;;;;7.63;5.13;;;10.70;99.90;;;;;;4914805;29;20055;-57
2022/04/27 08:52:03;;;;;;;8.38;5.10;;;10.90;99.90;;;;;;4907942;29;20049;-56
2022/04/27 08:54:33;;;;;;;13.18;5.30;;;10.90;99.90;;;;;;4915139;29;20501;-54
2022/04/27 08:57:03;;;;;;;6.53;4.15;;;10.90;99.90;;;;;;4915502;29;20048;-56
2022/04/27 08:59:29;;;;;;;5.97;3.92;;;10.80;99.90;;;;;;4913541;29;20449;-56
2022/04/27 09:01:56;;;;;;;6.13;3.38;;;10.70;99.90;;;;;;4915111;29;20052;-56
2022/04/27 09:04:23;;;;;;;4.07;3.38;;;10.70;99.90;;;;;;4928411;23;20546;-53
2022/04/27 09:06:50;;;;;;;8.10;3.75;;;10.80;99.90;;;;;;4912468;29;20552;-53
2022/04/27 09:09:39;;;;;;;7.78;3.40;;;10.80;99.90;;;;;;4915952;29;20096;-52
2022/04/27 09:12:14;;;;;;;4.75;3.50;;;10.90;99.90;;;;;;4915114;29;20503;-50
2022/04/27 09:14:43;;;;;;;4.85;3.67;;;11.10;99.90;;;;;;4915097;29;20048;-53
2022/04/27 09:23:04;;;;;;;3.88;3.35;;;11.00;99.90;;;;;;4915324;29;20056;-52
2022/04/27 09:25:36;;;;;;;6.25;3.22;;;10.70;99.90;;;;;;4915098;29;20064;-50
2022/04/27 09:28:29;;;;;;;8.27;3.38;;;11.00;99.90;;;;;;4914363;29;20072;-55
2022/04/27 09:30:56;;;;;;;3.60;3.00;;;11.20;99.90;;;;;;4914576;29;20040;-50
2022/04/27 09:33:29;;;;;;;3.38;2.95;;;10.90;99.90;;;;;;4915016;29;20052;-50
2022/04/27 09:35:56;;;;;;;5.07;3.05;;;11.00;99.90;;;;;;4907912;29;20100;-49
2022/04/27 09:38:23;;;;;;;5.15;3.33;;;11.30;99.90;;;;;;4914613;29;20052;-52
2022/04/27 09:40:57;;;;;;;4.93;3.60;;;11.40;99.90;;;;;;4914582;29;20040;-53
2022/04/27 09:43:46;;;;;;;4.22;2.85;;;11.60;99.90;;;;;;4913336;29;20311;-53
2022/04/27 09:46:20;;;;;;;4.50;3.63;;;11.70;99.90;;;;;;4913093;29;20115;-56
2022/04/27 09:48:47;;;;;;;4.75;3.38;;;12.00;99.90;;;;;;4915063;29;20513;-53
2022/04/27 09:51:14;;;;;;;5.30;3.58;;;12.30;99.90;;;;;;4914524;29;20413;-52
2022/04/27 09:53:44;;;;;;;6.40;3.00;;;12.40;99.90;;;;;;4914079;29;20052;-52
2022/04/27 09:56:12;;;;;;;3.83;2.80;;;12.50;99.90;;;;;;4915124;29;20047;-51
2022/04/27 09:58:45;;;;;;;3.58;3.03;;;12.50;99.90;;;;;;4914869;29;20454;-51
2022/04/27 10:01:15;;;;;;;3.67;2.65;;;12.40;99.90;;;;;;4913843;29;20087;-55
2022/04/27 10:03:48;;;;;;;3.95;3.00;;;12.30;99.90;;;;;;4911972;29;20042;-51
2022/04/27 10:06:16;;;;;;;3.00;2.70;;;12.20;99.90;;;;;;4918568;29;20052;-52
2022/04/27 10:08:43;;;;;;;3.30;2.88;;;12.30;99.90;;;;;;4918291;29;20044;-53
2022/04/27 10:11:12;;;;;;;3.10;2.53;;;12.50;99.90;;;;;;4915996;29;20052;-52
2022/04/27 10:13:38;;;;;;;3.03;2.28;;;12.70;99.90;;;;;;4918110;29;20462;-55
2022/04/27 10:16:06;;;;;;;3.90;2.45;;;12.90;99.90;;;;;;4918007;29;20048;-51
2022/04/27 10:18:33;;;;;;;3.42;2.38;;;13.10;99.90;;;;;;4918105;29;20044;-56
2022/04/27 10:21:02;;;;;;;4.60;3.28;;;13.30;99.90;;;;;;4911744;29;20104;-52
2022/04/27 10:23:31;;;;;;;4.00;2.72;;;13.50;99.90;;;;;;4910323;29;20044;-52
2022/04/27 10:26:13;;;;;;;3.38;2.75;;;13.50;99.90;;;;;;4918099;29;20108;-52
2022/04/27 10:28:47;;;;;;;3.40;2.78;;;13.60;99.90;;;;;;4917866;29;20044;-53
2022/04/27 10:31:14;;;;;;;2.70;2.47;;;13.60;99.90;;;;;;4910101;29;20112;-54
2022/04/27 10:33:42;;;;;;;3.15;2.38;;;13.60;99.90;;;;;;4917715;29;20048;-53
2022/04/27 10:36:29;;;;;;;4.82;2.90;;;13.70;99.90;;;;;;4917848;29;20040;-52
2022/04/27 10:39:11;;;;;;;3.10;2.60;;;13.80;99.90;;;;;;4914456;29;20500;-53
2022/04/27 10:41:55;;;;;;;3.83;2.80;;;13.90;99.90;;;;;;4910857;29;20489;-56
2022/04/27 10:44:47;;;;;;;3.85;2.95;;;13.90;99.90;;;;;;4917704;29;20052;-53
2022/04/27 10:47:16;;;;;;;3.70;2.70;;;14.00;99.90;;;;;;4915954;29;20051;-53
2022/04/27 10:49:43;;;;;;;4.05;2.85;;;13.90;99.90;;;;;;4917162;29;20052;-52
2022/04/27 10:52:10;;;;;;;4.93;2.67;;;14.10;99.90;;;;;;4917373;29;20048;-56
2022/04/27 10:54:38;;;;;;;;;;;14.20;99.90;;;;;;4917948;29;20108;-55
2022/04/27 10:57:18;;;;;;;4.33;2.90;;;13.60;99.90;;;;;;4916173;29;19923;-52
2022/04/27 10:59:49;;;;;;;4.05;3.00;;;13.60;99.90;;;;;;4916983;29;20284;-51
2022/04/27 11:02:37;;;;;;;6.53;3.20;;;13.30;99.90;;;;;;4917157;29;20048;-55
2022/04/27 11:05:10;;;;;;;4.75;3.15;;;13.40;99.90;;;;;;4917375;29;20359;-57
2022/04/27 11:08:09;;;;;;;4.45;3.08;;;13.60;99.90;;;;;;4912462;29;20048;-51
2022/04/27 11:10:38;;;;;;;;;;;13.90;99.90;;;;;;4898378;29;20048;-55
2022/04/27 11:13:08;;;;;;;4.35;2.83;;;14.00;99.90;;;;;;4881277;29;20449;-53
2022/04/27 11:15:35;;;;;;;3.38;2.63;;;14.40;99.90;;;;;;4897772;29;20041;-52
2022/04/27 11:18:04;;;;;;;4.63;3.22;;;14.70;99.90;;;;;;4899951;29;20048;-53
2022/04/27 11:20:35;;;;;;;5.53;3.00;;;15.30;99.90;;;;;;4916845;29;20059;-52
2022/04/27 11:23:19;;;;;;;4.68;3.40;;;15.70;99.90;;;;;;4916210;29;20091;-52
2022/04/27 11:25:50;;;;;;;3.75;3.30;;;15.90;99.90;;;;;;4911687;29;20048;-55
2022/04/27 11:28:18;;;;;;;4.65;2.90;;;16.00;99.90;;;;;;4916982;29;20048;-52
2022/04/27 11:30:44;;;;;;;5.70;2.72;;;15.70;99.90;;;;;;4916376;29;20123;-56
2022/04/27 11:33:11;;;;;;;4.45;3.25;;;15.40;99.90;;;;;;4910566;29;20055;-53
2022/04/27 11:35:40;;;;;;;5.60;3.03;;;15.30;99.90;;;;;;4916548;29;20099;-53
2022/04/27 11:38:08;;;;;;;4.63;2.88;;;15.00;99.90;;;;;;4916712;29;20576;-52
2022/04/27 11:40:37;;;;;;;4.47;2.97;;;14.80;99.90;;;;;;4912785;29;20051;-54
2022/04/27 11:43:05;;;;;;;6.80;3.05;;;14.70;99.90;;;;;;4916340;29;20512;-52
2022/04/27 11:45:32;;;;;;;4.88;2.63;;;14.60;99.90;;;;;;4916514;29;20055;-54
2022/04/27 11:48:02;;;;;;;;;;;14.50;99.90;;;;;;4916993;29;20217;-54
2022/04/27 11:50:34;;;;;;;6.10;3.53;;;14.50;99.90;;;;;;4908907;29;20292;-53
2022/04/27 11:53:05;;;;;;;6.72;3.55;;;14.60;99.90;;;;;;4916695;29;20052;-55
2022/04/27 11:55:34;;;;;;;5.63;3.20;;;14.70;99.90;;;;;;4916385;29;20048;-53
2022/04/27 11:58:02;;;;;;;5.38;3.65;;;14.50;99.90;;;;;;4909051;29;20516;-56
2022/04/27 12:00:30;;;;;;;4.80;3.00;;;14.40;99.90;;;;;;4908266;29;20120;-52
2022/04/27 12:03:05;;;;;;;4.03;2.67;;;14.40;99.90;;;;;;4916427;29;20052;-53
2022/04/27 12:05:37;;;;;;;5.25;3.13;;;14.40;99.90;;;;;;4915957;29;20043;-54
2022/04/27 12:08:09;;;;;;;3.70;2.88;;;14.10;99.90;;;;;;4910902;29;20059;-51
2022/04/27 12:10:43;;;;;;;4.38;2.55;;;14.20;99.90;;;;;;4915838;29;20052;-52
2022/04/27 12:13:11;;;;;;;3.38;2.50;;;14.50;99.90;;;;;;4915898;29;20083;-55
2022/04/27 12:15:40;;;;;;;3.25;2.45;;;14.60;99.90;;;;;;4916047;29;20484;-52
2022/04/27 12:18:12;;;;;;;5.03;2.08;;;14.90;99.90;;;;;;4914043;29;20044;-52
2022/04/27 12:20:41;;;;;;;3.17;2.38;;;15.10;99.90;;;;;;4915650;29;20099;-53
2022/04/27 12:23:16;;;;;;;3.78;2.30;;;15.20;99.90;;;;;;4915786;29;20044;-52
2022/04/27 12:25:48;;;;;;;3.35;2.47;;;15.50;99.90;;;;;;4915285;29;20056;-51
2022/04/27 12:28:17;;;;;;;7.97;4.88;;;15.40;99.90;;;;;;4914383;29;20055;-53
2022/04/27 12:30:53;;;;;;;3.97;2.97;;;14.90;99.90;;;;;;4915376;29;20557;-55
2022/04/27 12:33:22;;;;;;;4.50;3.00;;;14.60;99.90;;;;;;4915503;29;20140;-54
2022/04/27 12:39:03;;;;;;;7.95;3.17;;;15.00;99.90;;;;;;4896905;29;20052;-54
2022/04/27 12:41:31;;;;;;;;;;;15.50;99.90;;;;;;4900747;29;20079;-56
2022/04/27 12:44:06;;;;;;;4.43;3.63;;;15.70;99.90;;;;;;4915109;29;20422;-56
2022/04/27 12:47:00;;;;;;;5.50;3.80;;;15.50;99.90;;;;;;4896707;29;20087;-52
2022/04/27 12:49:38;;;;;;;5.72;4.32;;;15.10;99.90;;;;;;4899590;29;20441;-52
2022/04/27 12:52:26;;;;;;;4.70;3.30;;;14.80;99.90;;;;;;4915253;29;20048;-51
2022/04/27 12:55:13;;;;;;;4.85;3.67;;;14.40;99.90;;;;;;4915320;29;20497;-53
2022/04/27 12:57:55;;;;;;;6.85;3.97;;;14.10;99.90;;;;;;4914814;29;20040;-52
2022/04/27 13:00:38;;;;;;;7.03;4.30;;;13.90;99.90;;;;;;4914168;29;20111;-55
2022/04/27 13:03:09;;;;;;;6.63;4.57;;;13.80;99.90;;;;;;4915292;29;20056;-53
2022/04/27 13:05:37;;;;;;;5.55;4.13;;;13.70;99.90;;;;;;4915256;29;20111;-53
2022/04/27 13:08:05;;;;;;;4.07;3.25;;;13.50;99.90;;;;;;4912435;29;20130;-52
2022/04/27 13:13:18;;;;;;;6.00;3.30;;;13.70;99.90;;;;;;4915186;29;19930;-52
2022/04/27 13:15:46;;;;;;;5.03;3.25;;;13.60;99.90;;;;;;4912597;29;20512;-52
2022/04/27 13:18:13;;;;;;;5.65;3.10;;;13.30;99.90;;;;;;4913387;29;20044;-52
2022/04/27 13:20:40;;;;;;;7.32;3.40;;;13.40;99.90;;;;;;4914819;29;20040;-53
2022/04/27 13:23:09;;;;;;;6.07;3.25;;;13.70;99.90;;;;;;4915052;29;20044;-53
2022/04/27 13:25:36;;;;;;;5.03;3.38;;;14.10;99.90;;;;;;4908174;29;20501;-56
2022/04/27 13:28:03;;;;;;;4.25;3.03;;;14.30;99.90;;;;;;4914870;29;20096;-53
2022/04/27 13:30:30;;;;;;;6.88;3.67;;;14.40;99.90;;;;;;4914819;29;20048;-53
2022/04/27 13:32:58;;;;;;;3.45;2.67;;;14.50;99.90;;;;;;4912143;29;20056;-52
2022/04/27 13:35:25;;;;;;;6.85;3.30;;;14.50;99.90;;;;;;4914864;29;20051;-51